sensor_id;sensor_type;location;lat;lon;timestamp;temperature;humidity
76759;DHT22;65701;45.588;5.186;2023-12-07T05:37:22;4.75;79.86
76759;DHT22;65701;45.588;5.186;2023-12-07T05:39:48;4.72;79.75
76759;DHT22;65701;45.588;5.186;2023-12-07T05:42:14;4.68;79.61
76759;DHT22;65701;45.588;5.186;2023-12-07T05:44:39;4.66;79.49
76759;DHT22;65701;45.588;5.186;2023-12-07T05:47:05;4.63;79.40
76759;DHT22;65701;45.588;5.186;2023-12-07T05:49:30;4.61;79.25
76759;DHT22;65701;45.588;5.186;2023-12-07T05:51:56;4.55;79.12
76759;DHT22;65701;45.588;5.186;2023-12-07T05:54:21;4.49;79.02
76759;DHT22;65701;45.588;5.186;2023-12-07T05:56:50;4.41;78.90
76759;DHT22;65701;45.588;5.186;2023-12-07T05:59:15;4.34;78.83
76759;DHT22;65701;45.588;5.186;2023-12-07T06:01:41;4.27;78.75
76759;DHT22;65701;45.588;5.186;2023-12-07T06:04:09;4.22;78.70
76759;DHT22;65701;45.588;5.186;2023-12-07T06:06:35;4.17;78.69
76759;DHT22;65701;45.588;5.186;2023-12-07T06:09:01;4.11;78.71
76759;DHT22;65701;45.588;5.186;2023-12-07T06:11:27;4.10;78.76
76759;DHT22;65701;45.588;5.186;2023-12-07T06:13:52;4.08;78.76
76759;DHT22;65701;45.588;5.186;2023-12-07T06:16:17;4.10;78.82
76759;DHT22;65701;45.588;5.186;2023-12-07T06:18:44;4.04;78.87
76759;DHT22;65701;45.588;5.186;2023-12-07T06:21:09;4.03;78.94
76759;DHT22;65701;45.588;5.186;2023-12-07T06:23:35;4.06;79.02
76759;DHT22;65701;45.588;5.186;2023-12-07T06:26:02;4.08;79.05
76759;DHT22;65701;45.588;5.186;2023-12-07T06:28:27;4.03;79.14
76759;DHT22;65701;45.588;5.186;2023-12-07T06:30:53;3.97;79.20
76759;DHT22;65701;45.588;5.186;2023-12-07T06:33:18;3.97;79.21
76759;DHT22;65701;45.588;5.186;2023-12-07T06:35:45;3.91;79.28
76759;DHT22;65701;45.588;5.186;2023-12-07T06:38:12;3.76;79.44
76759;DHT22;65701;45.588;5.186;2023-12-07T06:40:37;3.83;79.56
76759;DHT22;65701;45.588;5.186;2023-12-07T06:43:03;3.85;79.64
76759;DHT22;65701;45.588;5.186;2023-12-07T06:45:28;3.83;79.57
76759;DHT22;65701;45.588;5.186;2023-12-07T06:47:54;3.83;79.50
76759;DHT22;65701;45.588;5.186;2023-12-07T06:50:19;3.80;79.44
76759;DHT22;65701;45.588;5.186;2023-12-07T06:52:46;3.79;79.36
76759;DHT22;65701;45.588;5.186;2023-12-07T06:55:11;3.83;79.38
76759;DHT22;65701;45.588;5.186;2023-12-07T06:57:38;3.83;79.30
76759;DHT22;65701;45.588;5.186;2023-12-07T07:00:04;3.83;79.27
76759;DHT22;65701;45.588;5.186;2023-12-07T07:02:35;3.82;79.25
76759;DHT22;65701;45.588;5.186;2023-12-07T07:05:00;3.85;79.22
76759;DHT22;65701;45.588;5.186;2023-12-07T07:07:26;3.87;79.12
76759;DHT22;65701;45.588;5.186;2023-12-07T07:09:51;3.85;79.11
76759;DHT22;65701;45.588;5.186;2023-12-07T07:12:17;3.80;79.13
76759;DHT22;65701;45.588;5.186;2023-12-07T07:14:42;3.82;79.14
76759;DHT22;65701;45.588;5.186;2023-12-07T07:17:08;3.80;79.16
76759;DHT22;65701;45.588;5.186;2023-12-07T07:19:33;3.79;79.15
76759;DHT22;65701;45.588;5.186;2023-12-07T07:21:59;3.79;79.18
76759;DHT22;65701;45.588;5.186;2023-12-07T07:24:24;3.79;79.17
76759;DHT22;65701;45.588;5.186;2023-12-07T07:26:50;3.79;79.15
76759;DHT22;65701;45.588;5.186;2023-12-07T07:29:15;3.72;79.07
76759;DHT22;65701;45.588;5.186;2023-12-07T07:31:41;3.66;79.11
76759;DHT22;65701;45.588;5.186;2023-12-07T07:34:06;3.55;79.15
76759;DHT22;65701;45.588;5.186;2023-12-07T07:36:33;3.54;79.48
76759;DHT22;65701;45.588;5.186;2023-12-07T07:38:58;3.52;79.47
76759;DHT22;65701;45.588;5.186;2023-12-07T07:41:24;3.52;79.53
76759;DHT22;65701;45.588;5.186;2023-12-07T07:43:49;3.48;79.60
76759;DHT22;65701;45.588;5.186;2023-12-07T07:46:16;3.44;79.56
76759;DHT22;65701;45.588;5.186;2023-12-07T07:48:41;3.31;80.10
76759;DHT22;65701;45.588;5.186;2023-12-07T07:51:07;3.35;80.33
76759;DHT22;65701;45.588;5.186;2023-12-07T07:53:32;3.36;80.20
76759;DHT22;65701;45.588;5.186;2023-12-07T07:55:58;3.31;80.06
76759;DHT22;65701;45.588;5.186;2023-12-07T07:58:23;3.27;79.93
76759;DHT22;65701;45.588;5.186;2023-12-07T08:00:48;3.25;79.97
76759;DHT22;65701;45.588;5.186;2023-12-07T08:03:14;3.23;80.03
76759;DHT22;65701;45.588;5.186;2023-12-07T08:05:40;3.27;80.02
76759;DHT22;65701;45.588;5.186;2023-12-07T08:08:05;3.31;79.98
76759;DHT22;65701;45.588;5.186;2023-12-07T08:10:31;3.41;79.98
76759;DHT22;65701;45.588;5.186;2023-12-07T08:12:57;3.46;79.93
76759;DHT22;65701;45.588;5.186;2023-12-07T08:15:22;3.56;79.85
76759;DHT22;65701;45.588;5.186;2023-12-07T08:17:48;3.66;79.75
76759;DHT22;65701;45.588;5.186;2023-12-07T08:20:13;3.83;79.69
76759;DHT22;65701;45.588;5.186;2023-12-07T08:22:40;3.97;79.62
76759;DHT22;65701;45.588;5.186;2023-12-07T08:25:06;4.10;79.57
76759;DHT22;65701;45.588;5.186;2023-12-07T08:27:33;4.16;79.13
76759;DHT22;65701;45.588;5.186;2023-12-07T08:29:59;4.18;78.94
76759;DHT22;65701;45.588;5.186;2023-12-07T08:32:24;4.13;78.72
76759;DHT22;65701;45.588;5.186;2023-12-07T08:34:51;4.11;78.45
76759;DHT22;65701;45.588;5.186;2023-12-07T08:37:17;4.04;78.35
76759;DHT22;65701;45.588;5.186;2023-12-07T08:39:42;3.97;78.26
76759;DHT22;65701;45.588;5.186;2023-12-07T08:42:08;3.86;78.19
76759;DHT22;65701;45.588;5.186;2023-12-07T08:44:33;3.87;78.20
76759;DHT22;65701;45.588;5.186;2023-12-07T08:46:59;3.90;78.32
76759;DHT22;65701;45.588;5.186;2023-12-07T08:49:24;3.90;78.45
76759;DHT22;65701;45.588;5.186;2023-12-07T08:51:51;3.94;78.54
76759;DHT22;65701;45.588;5.186;2023-12-07T08:54:18;3.90;78.56
76759;DHT22;65701;45.588;5.186;2023-12-07T08:56:47;3.94;78.57
76759;DHT22;65701;45.588;5.186;2023-12-07T08:59:12;3.94;78.59
76759;DHT22;65701;45.588;5.186;2023-12-07T09:01:38;3.96;78.67
76759;DHT22;65701;45.588;5.186;2023-12-07T09:04:03;4.00;78.71
76759;DHT22;65701;45.588;5.186;2023-12-07T09:06:30;4.04;78.77
76759;DHT22;65701;45.588;5.186;2023-12-07T09:08:56;4.03;78.79
76759;DHT22;65701;45.588;5.186;2023-12-07T09:11:21;4.06;78.69
76759;DHT22;65701;45.588;5.186;2023-12-07T09:13:47;4.10;78.67
76759;DHT22;65701;45.588;5.186;2023-12-07T09:16:12;4.17;78.74
76759;DHT22;65701;45.588;5.186;2023-12-07T09:18:38;4.20;78.77
76759;DHT22;65701;45.588;5.186;2023-12-07T09:21:04;4.21;78.70
76759;DHT22;65701;45.588;5.186;2023-12-07T09:23:30;4.21;78.68
76759;DHT22;65701;45.588;5.186;2023-12-07T09:25:56;4.25;78.64
76759;DHT22;65701;45.588;5.186;2023-12-07T09:28:21;4.28;78.64
76759;DHT22;65701;45.588;5.186;2023-12-07T09:30:47;4.34;78.68
76759;DHT22;65701;45.588;5.186;2023-12-07T09:33:12;4.44;78.69
76759;DHT22;65701;45.588;5.186;2023-12-07T09:35:38;4.51;78.64
76759;DHT22;65701;45.588;5.186;2023-12-07T09:38:04;4.62;78.61
76759;DHT22;65701;45.588;5.186;2023-12-07T09:40:30;4.72;78.59
76759;DHT22;65701;45.588;5.186;2023-12-07T09:42:55;4.83;78.60
76759;DHT22;65701;45.588;5.186;2023-12-07T09:45:21;4.93;78.48
76759;DHT22;65701;45.588;5.186;2023-12-07T09:47:51;5.03;78.15
76759;DHT22;65701;45.588;5.186;2023-12-07T09:50:18;5.14;78.15
76759;DHT22;65701;45.588;5.186;2023-12-07T09:52:44;5.21;78.20
76759;DHT22;65701;45.588;5.186;2023-12-07T09:55:09;5.39;78.28
76759;DHT22;65701;45.588;5.186;2023-12-07T09:57:37;5.51;78.22
76759;DHT22;65701;45.588;5.186;2023-12-07T10:00:03;5.65;78.18
76759;DHT22;65701;45.588;5.186;2023-12-07T10:02:30;5.76;78.06
76759;DHT22;65701;45.588;5.186;2023-12-07T10:05:05;5.83;77.81
76759;DHT22;65701;45.588;5.186;2023-12-07T10:07:35;5.91;77.60
76759;DHT22;65701;45.588;5.186;2023-12-07T10:10:02;5.96;77.50
76759;DHT22;65701;45.588;5.186;2023-12-07T10:12:29;6.00;77.12
76759;DHT22;65701;45.588;5.186;2023-12-07T10:14:54;6.01;76.38
76759;DHT22;65701;45.588;5.186;2023-12-07T10:17:20;6.06;75.59
76759;DHT22;65701;45.588;5.186;2023-12-07T10:19:45;6.08;75.03
76759;DHT22;65701;45.588;5.186;2023-12-07T10:22:14;6.17;74.80
76759;DHT22;65701;45.588;5.186;2023-12-07T10:24:43;6.21;74.71
76759;DHT22;65701;45.588;5.186;2023-12-07T10:27:08;6.25;74.64
76759;DHT22;65701;45.588;5.186;2023-12-07T10:29:37;6.20;74.45
76759;DHT22;65701;45.588;5.186;2023-12-07T10:32:03;6.28;74.14
76759;DHT22;65701;45.588;5.186;2023-12-07T10:34:30;6.35;74.15
76759;DHT22;65701;45.588;5.186;2023-12-07T10:36:57;6.38;74.06
76759;DHT22;65701;45.588;5.186;2023-12-07T10:39:24;6.44;73.66
76759;DHT22;65701;45.588;5.186;2023-12-07T10:41:56;6.42;73.15
76759;DHT22;65701;45.588;5.186;2023-12-07T10:44:28;6.46;72.95
76759;DHT22;65701;45.588;5.186;2023-12-07T10:46:54;6.52;72.58
76759;DHT22;65701;45.588;5.186;2023-12-07T10:49:22;6.50;72.15
76759;DHT22;65701;45.588;5.186;2023-12-07T10:52:00;6.62;71.82
76759;DHT22;65701;45.588;5.186;2023-12-07T10:54:42;6.71;71.36
76759;DHT22;65701;45.588;5.186;2023-12-07T10:57:11;6.79;71.28
76759;DHT22;65701;45.588;5.186;2023-12-07T10:59:41;6.77;70.51
76759;DHT22;65701;45.588;5.186;2023-12-07T11:02:10;6.82;70.18
76759;DHT22;65701;45.588;5.186;2023-12-07T11:04:38;6.83;69.77
76759;DHT22;65701;45.588;5.186;2023-12-07T11:07:09;6.84;69.44
76759;DHT22;65701;45.588;5.186;2023-12-07T11:09:41;6.89;69.23
76759;DHT22;65701;45.588;5.186;2023-12-07T11:14:58;6.93;68.61
76759;DHT22;65701;45.588;5.186;2023-12-07T11:17:23;6.86;68.36
76759;DHT22;65701;45.588;5.186;2023-12-07T11:19:49;6.91;68.14
76759;DHT22;65701;45.588;5.186;2023-12-07T11:22:14;6.93;68.11
76759;DHT22;65701;45.588;5.186;2023-12-07T11:24:57;6.91;68.43
76759;DHT22;65701;45.588;5.186;2023-12-07T11:27:26;7.00;68.70
76759;DHT22;65701;45.588;5.186;2023-12-07T11:29:54;7.03;68.83
76759;DHT22;65701;45.588;5.186;2023-12-07T11:32:20;7.05;68.92
76759;DHT22;65701;45.588;5.186;2023-12-07T11:34:45;7.12;68.84
76759;DHT22;65701;45.588;5.186;2023-12-07T11:37:14;7.20;69.20
76759;DHT22;65701;45.588;5.186;2023-12-07T11:39:42;7.20;69.26
76759;DHT22;65701;45.588;5.186;2023-12-07T11:42:12;7.24;69.41
76759;DHT22;65701;45.588;5.186;2023-12-07T11:44:39;7.22;69.20
76759;DHT22;65701;45.588;5.186;2023-12-07T11:47:05;7.24;68.93
76759;DHT22;65701;45.588;5.186;2023-12-07T11:49:31;7.22;68.50
76759;DHT22;65701;45.588;5.186;2023-12-07T11:51:58;7.24;68.37
76759;DHT22;65701;45.588;5.186;2023-12-07T11:54:25;7.31;68.56
76759;DHT22;65701;45.588;5.186;2023-12-07T11:56:57;7.35;68.79
76759;DHT22;65701;45.588;5.186;2023-12-07T11:59:23;7.41;68.99
76759;DHT22;65701;45.588;5.186;2023-12-07T12:01:51;7.45;69.05
76759;DHT22;65701;45.588;5.186;2023-12-07T12:04:17;7.48;68.98
76759;DHT22;65701;45.588;5.186;2023-12-07T12:06:44;7.44;69.04
76759;DHT22;65701;45.588;5.186;2023-12-07T12:09:12;7.42;68.62
76759;DHT22;65701;45.588;5.186;2023-12-07T12:11:38;7.48;68.43
76759;DHT22;65701;45.588;5.186;2023-12-07T12:14:09;7.46;68.21
76759;DHT22;65701;45.588;5.186;2023-12-07T12:16:34;7.49;68.29
76759;DHT22;65701;45.588;5.186;2023-12-07T12:19:00;7.51;68.24
76759;DHT22;65701;45.588;5.186;2023-12-07T12:21:26;7.51;68.25
76759;DHT22;65701;45.588;5.186;2023-12-07T12:23:51;7.55;68.21
76759;DHT22;65701;45.588;5.186;2023-12-07T12:26:17;7.55;68.28
76759;DHT22;65701;45.588;5.186;2023-12-07T12:28:44;7.59;68.17
76759;DHT22;65701;45.588;5.186;2023-12-07T12:31:10;7.58;68.04
76759;DHT22;65701;45.588;5.186;2023-12-07T12:33:37;7.44;67.55
76759;DHT22;65701;45.588;5.186;2023-12-07T12:36:04;7.45;67.02
76759;DHT22;65701;45.588;5.186;2023-12-07T12:38:32;7.49;66.57
76759;DHT22;65701;45.588;5.186;2023-12-07T12:40:58;7.39;66.61
76759;DHT22;65701;45.588;5.186;2023-12-07T12:43:23;7.51;66.36
76759;DHT22;65701;45.588;5.186;2023-12-07T12:45:49;7.51;66.57
76759;DHT22;65701;45.588;5.186;2023-12-07T12:48:15;7.45;66.34
76759;DHT22;65701;45.588;5.186;2023-12-07T12:50:41;7.41;66.09
76759;DHT22;65701;45.588;5.186;2023-12-07T12:53:09;7.39;65.81
76759;DHT22;65701;45.588;5.186;2023-12-07T12:55:40;7.34;65.85
76759;DHT22;65701;45.588;5.186;2023-12-07T12:58:07;7.36;65.85
76759;DHT22;65701;45.588;5.186;2023-12-07T13:00:34;7.42;65.88
76759;DHT22;65701;45.588;5.186;2023-12-07T13:03:00;7.44;65.82
76759;DHT22;65701;45.588;5.186;2023-12-07T13:05:27;7.46;65.99
76759;DHT22;65701;45.588;5.186;2023-12-07T13:07:52;7.51;65.96
76759;DHT22;65701;45.588;5.186;2023-12-07T13:10:18;7.59;66.26
76759;DHT22;65701;45.588;5.186;2023-12-07T13:12:44;7.63;66.62
76759;DHT22;65701;45.588;5.186;2023-12-07T13:15:10;7.69;66.85
76759;DHT22;65701;45.588;5.186;2023-12-07T13:17:37;7.67;67.20
76759;DHT22;65701;45.588;5.186;2023-12-07T13:20:05;7.70;67.43
76759;DHT22;65701;45.588;5.186;2023-12-07T13:22:33;7.73;67.38
76759;DHT22;65701;45.588;5.186;2023-12-07T13:24:58;7.77;67.32
76759;DHT22;65701;45.588;5.186;2023-12-07T13:27:23;7.79;67.19
76759;DHT22;65701;45.588;5.186;2023-12-07T13:29:49;7.82;67.00
76759;DHT22;65701;45.588;5.186;2023-12-07T13:32:15;7.82;66.79
76759;DHT22;65701;45.588;5.186;2023-12-07T13:34:41;7.83;66.80
76759;DHT22;65701;45.588;5.186;2023-12-07T13:37:06;7.87;66.71
76759;DHT22;65701;45.588;5.186;2023-12-07T13:39:32;7.89;66.62
76759;DHT22;65701;45.588;5.186;2023-12-07T13:41:58;7.93;66.66
76759;DHT22;65701;45.588;5.186;2023-12-07T13:44:24;7.94;66.77
76759;DHT22;65701;45.588;5.186;2023-12-07T13:46:49;7.95;66.85
76759;DHT22;65701;45.588;5.186;2023-12-07T13:49:15;7.97;66.76
76759;DHT22;65701;45.588;5.186;2023-12-07T13:51:42;7.97;66.44
76759;DHT22;65701;45.588;5.186;2023-12-07T13:54:08;7.95;66.36
76759;DHT22;65701;45.588;5.186;2023-12-07T13:56:34;7.97;66.31
76759;DHT22;65701;45.588;5.186;2023-12-07T13:59:00;7.93;66.20
76759;DHT22;65701;45.588;5.186;2023-12-07T14:01:26;7.95;65.98
76759;DHT22;65701;45.588;5.186;2023-12-07T14:03:51;7.98;65.71
76759;DHT22;65701;45.588;5.186;2023-12-07T14:06:24;7.95;65.34
76759;DHT22;65701;45.588;5.186;2023-12-07T14:08:50;7.95;65.19
76759;DHT22;65701;45.588;5.186;2023-12-07T14:11:18;7.94;65.26
76759;DHT22;65701;45.588;5.186;2023-12-07T14:13:44;7.94;65.50
76759;DHT22;65701;45.588;5.186;2023-12-07T14:16:14;7.94;65.35
76759;DHT22;65701;45.588;5.186;2023-12-07T14:18:39;7.89;65.18
76759;DHT22;65701;45.588;5.186;2023-12-07T14:21:05;7.95;65.44
76759;DHT22;65701;45.588;5.186;2023-12-07T14:23:30;7.90;65.36
76759;DHT22;65701;45.588;5.186;2023-12-07T14:25:57;7.93;65.05
76759;DHT22;65701;45.588;5.186;2023-12-07T14:28:26;7.95;65.12
76759;DHT22;65701;45.588;5.186;2023-12-07T14:30:56;7.93;65.38
76759;DHT22;65701;45.588;5.186;2023-12-07T14:33:22;7.93;65.06
76759;DHT22;65701;45.588;5.186;2023-12-07T14:35:48;7.87;65.22
76759;DHT22;65701;45.588;5.186;2023-12-07T14:38:14;7.86;64.99
76759;DHT22;65701;45.588;5.186;2023-12-07T14:40:40;7.84;64.85
76759;DHT22;65701;45.588;5.186;2023-12-07T14:43:05;7.79;64.87
76759;DHT22;65701;45.588;5.186;2023-12-07T14:45:31;7.72;64.50
76759;DHT22;65701;45.588;5.186;2023-12-07T14:47:56;7.73;64.43
76759;DHT22;65701;45.588;5.186;2023-12-07T14:50:23;7.63;64.30
76759;DHT22;65701;45.588;5.186;2023-12-07T14:52:49;7.62;63.98
76759;DHT22;65701;45.588;5.186;2023-12-07T14:55:14;7.65;63.81
76759;DHT22;65701;45.588;5.186;2023-12-07T14:57:39;7.65;63.67
76759;DHT22;65701;45.588;5.186;2023-12-07T15:00:05;7.65;63.85
76759;DHT22;65701;45.588;5.186;2023-12-07T15:02:32;7.65;64.20
76759;DHT22;65701;45.588;5.186;2023-12-07T15:04:58;7.63;64.19
76759;DHT22;65701;45.588;5.186;2023-12-07T15:07:23;7.58;64.69
76759;DHT22;65701;45.588;5.186;2023-12-07T15:09:49;7.49;64.89
76759;DHT22;65701;45.588;5.186;2023-12-07T15:12:17;7.51;65.17
76759;DHT22;65701;45.588;5.186;2023-12-07T15:14:44;7.52;65.59
76759;DHT22;65701;45.588;5.186;2023-12-07T15:17:11;7.41;66.08
76759;DHT22;65701;45.588;5.186;2023-12-07T15:19:37;7.35;66.29
76759;DHT22;65701;45.588;5.186;2023-12-07T15:22:03;7.34;66.58
76759;DHT22;65701;45.588;5.186;2023-12-07T15:24:29;7.34;66.77
76759;DHT22;65701;45.588;5.186;2023-12-07T15:26:55;7.31;66.78
76759;DHT22;65701;45.588;5.186;2023-12-07T15:29:20;7.31;66.83
76759;DHT22;65701;45.588;5.186;2023-12-07T15:31:45;7.34;66.91
76759;DHT22;65701;45.588;5.186;2023-12-07T15:34:11;7.31;66.87
76759;DHT22;65701;45.588;5.186;2023-12-07T15:36:37;7.28;66.87
76759;DHT22;65701;45.588;5.186;2023-12-07T15:39:02;7.25;66.77
76759;DHT22;65701;45.588;5.186;2023-12-07T15:41:28;7.24;66.74
76759;DHT22;65701;45.588;5.186;2023-12-07T15:43:53;7.21;66.50
76759;DHT22;65701;45.588;5.186;2023-12-07T15:46:20;7.14;66.29
76759;DHT22;65701;45.588;5.186;2023-12-07T15:48:46;7.17;66.25
76759;DHT22;65701;45.588;5.186;2023-12-07T15:51:11;7.15;66.40
76759;DHT22;65701;45.588;5.186;2023-12-07T15:53:37;7.17;66.45
76759;DHT22;65701;45.588;5.186;2023-12-07T15:56:04;7.17;66.71
76759;DHT22;65701;45.588;5.186;2023-12-07T15:58:29;7.21;66.84
76759;DHT22;65701;45.588;5.186;2023-12-07T16:00:55;7.17;66.94
76759;DHT22;65701;45.588;5.186;2023-12-07T16:03:20;7.15;67.01
76759;DHT22;65701;45.588;5.186;2023-12-07T16:05:46;7.15;67.07
76759;DHT22;65701;45.588;5.186;2023-12-07T16:08:11;7.08;67.01
76759;DHT22;65701;45.588;5.186;2023-12-07T16:10:37;7.00;66.83
76759;DHT22;65701;45.588;5.186;2023-12-07T16:13:03;6.97;66.90
76759;DHT22;65701;45.588;5.186;2023-12-07T16:15:28;6.90;67.04
76759;DHT22;65701;45.588;5.186;2023-12-07T16:17:54;6.89;67.25
76759;DHT22;65701;45.588;5.186;2023-12-07T16:20:20;6.87;67.40
76759;DHT22;65701;45.588;5.186;2023-12-07T16:22:45;6.77;67.52
76759;DHT22;65701;45.588;5.186;2023-12-07T16:25:11;6.82;67.52
76759;DHT22;65701;45.588;5.186;2023-12-07T16:27:37;6.76;67.34
76759;DHT22;65701;45.588;5.186;2023-12-07T16:30:04;6.79;67.38
76759;DHT22;65701;45.588;5.186;2023-12-07T16:32:31;6.71;67.25
76759;DHT22;65701;45.588;5.186;2023-12-07T16:34:56;6.76;67.05
76759;DHT22;65701;45.588;5.186;2023-12-07T16:37:22;6.73;67.18
76759;DHT22;65701;45.588;5.186;2023-12-07T16:39:48;6.76;67.24
76759;DHT22;65701;45.588;5.186;2023-12-07T16:42:13;6.75;67.15
76759;DHT22;65701;45.588;5.186;2023-12-07T16:44:41;6.75;67.19
76759;DHT22;65701;45.588;5.186;2023-12-07T16:47:06;6.77;67.29
76759;DHT22;65701;45.588;5.186;2023-12-07T16:49:32;6.76;67.20
76759;DHT22;65701;45.588;5.186;2023-12-07T16:51:58;6.75;67.12
76759;DHT22;65701;45.588;5.186;2023-12-07T16:54:24;6.72;67.06
76759;DHT22;65701;45.588;5.186;2023-12-07T16:56:50;6.71;67.00
76759;DHT22;65701;45.588;5.186;2023-12-07T16:59:16;6.68;66.98
76759;DHT22;65701;45.588;5.186;2023-12-07T17:01:42;6.69;66.86
76759;DHT22;65701;45.588;5.186;2023-12-07T17:04:08;6.71;66.74
76759;DHT22;65701;45.588;5.186;2023-12-07T17:06:34;6.72;66.20
76759;DHT22;65701;45.588;5.186;2023-12-07T17:09:00;6.84;65.95
76759;DHT22;65701;45.588;5.186;2023-12-07T17:11:27;6.89;65.72
76759;DHT22;65701;45.588;5.186;2023-12-07T17:13:53;6.87;65.66
76759;DHT22;65701;45.588;5.186;2023-12-07T17:16:18;6.96;65.68
76759;DHT22;65701;45.588;5.186;2023-12-07T17:18:44;6.97;65.41
76759;DHT22;65701;45.588;5.186;2023-12-07T17:21:10;7.01;65.48
76759;DHT22;65701;45.588;5.186;2023-12-07T17:23:36;7.05;65.49
76759;DHT22;65701;45.588;5.186;2023-12-07T17:26:02;7.01;65.36
76759;DHT22;65701;45.588;5.186;2023-12-07T17:28:27;7.01;65.25
76759;DHT22;65701;45.588;5.186;2023-12-07T17:30:53;7.00;65.25
76759;DHT22;65701;45.588;5.186;2023-12-07T17:33:19;7.01;65.06
76759;DHT22;65701;45.588;5.186;2023-12-07T17:35:44;7.05;64.74
76759;DHT22;65701;45.588;5.186;2023-12-07T17:38:11;7.00;64.29
76759;DHT22;65701;45.588;5.186;2023-12-07T17:40:36;7.11;63.90
76759;DHT22;65701;45.588;5.186;2023-12-07T17:43:02;7.14;64.08
76759;DHT22;65701;45.588;5.186;2023-12-07T17:45:27;7.15;64.07
76759;DHT22;65701;45.588;5.186;2023-12-07T17:47:52;7.20;63.96
76759;DHT22;65701;45.588;5.186;2023-12-07T17:50:18;7.25;64.08
76759;DHT22;65701;45.588;5.186;2023-12-07T17:52:44;7.21;64.15
76759;DHT22;65701;45.588;5.186;2023-12-07T17:55:11;7.27;63.93
76759;DHT22;65701;45.588;5.186;2023-12-07T17:57:37;7.22;63.66
76759;DHT22;65701;45.588;5.186;2023-12-07T18:00:03;7.31;63.55
76759;DHT22;65701;45.588;5.186;2023-12-07T18:02:30;7.28;63.29
76759;DHT22;65701;45.588;5.186;2023-12-07T18:04:56;7.34;63.24
76759;DHT22;65701;45.588;5.186;2023-12-07T18:07:21;7.34;63.33
76759;DHT22;65701;45.588;5.186;2023-12-07T18:09:48;7.32;63.39
76759;DHT22;65701;45.588;5.186;2023-12-07T18:12:13;7.39;63.03
76759;DHT22;65701;45.588;5.186;2023-12-07T18:14:39;7.39;63.26
76759;DHT22;65701;45.588;5.186;2023-12-07T18:17:04;7.32;63.49
76759;DHT22;65701;45.588;5.186;2023-12-07T18:19:31;7.27;63.60
76759;DHT22;65701;45.588;5.186;2023-12-07T18:21:58;7.24;63.61
76759;DHT22;65701;45.588;5.186;2023-12-07T18:24:24;7.22;63.43
76759;DHT22;65701;45.588;5.186;2023-12-07T18:26:51;7.25;63.09
76759;DHT22;65701;45.588;5.186;2023-12-07T18:29:16;7.29;63.17
76759;DHT22;65701;45.588;5.186;2023-12-07T18:31:42;7.28;63.26
76759;DHT22;65701;45.588;5.186;2023-12-07T18:34:08;7.29;63.17
76759;DHT22;65701;45.588;5.186;2023-12-07T18:36:34;7.28;63.10
76759;DHT22;65701;45.588;5.186;2023-12-07T18:38:59;7.29;62.94
76759;DHT22;65701;45.588;5.186;2023-12-07T18:41:25;7.34;63.03
76759;DHT22;65701;45.588;5.186;2023-12-07T18:43:50;7.39;63.08
76759;DHT22;65701;45.588;5.186;2023-12-07T18:46:17;7.36;63.01
76759;DHT22;65701;45.588;5.186;2023-12-07T18:48:42;7.38;62.83
76759;DHT22;65701;45.588;5.186;2023-12-07T18:51:08;7.32;62.72
76759;DHT22;65701;45.588;5.186;2023-12-07T18:53:33;7.41;62.44
76759;DHT22;65701;45.588;5.186;2023-12-07T18:55:59;7.42;62.35
76759;DHT22;65701;45.588;5.186;2023-12-07T18:58:25;7.45;62.05
76759;DHT22;65701;45.588;5.186;2023-12-07T19:00:53;7.44;62.11
76759;DHT22;65701;45.588;5.186;2023-12-07T19:03:19;7.45;62.02
76759;DHT22;65701;45.588;5.186;2023-12-07T19:05:44;7.49;62.08
76759;DHT22;65701;45.588;5.186;2023-12-07T19:08:11;7.52;62.04
76759;DHT22;65701;45.588;5.186;2023-12-07T19:10:37;7.54;61.93
76759;DHT22;65701;45.588;5.186;2023-12-07T19:13:04;7.55;62.11
76759;DHT22;65701;45.588;5.186;2023-12-07T19:15:29;7.58;61.99
76759;DHT22;65701;45.588;5.186;2023-12-07T19:17:55;7.59;62.09
76759;DHT22;65701;45.588;5.186;2023-12-07T19:20:22;7.63;62.17
76759;DHT22;65701;45.588;5.186;2023-12-07T19:22:47;7.65;61.68
76759;DHT22;65701;45.588;5.186;2023-12-07T19:25:14;7.69;61.54
76759;DHT22;65701;45.588;5.186;2023-12-07T19:27:40;7.72;61.51
76759;DHT22;65701;45.588;5.186;2023-12-07T19:30:06;7.73;61.41
76759;DHT22;65701;45.588;5.186;2023-12-07T19:32:31;7.75;61.37
76759;DHT22;65701;45.588;5.186;2023-12-07T19:34:57;7.77;61.28
76759;DHT22;65701;45.588;5.186;2023-12-07T19:37:23;7.79;61.04
76759;DHT22;65701;45.588;5.186;2023-12-07T19:39:48;7.75;60.66
76759;DHT22;65701;45.588;5.186;2023-12-07T19:42:14;7.73;60.46
76759;DHT22;65701;45.588;5.186;2023-12-07T19:44:39;7.82;60.13
76759;DHT22;65701;45.588;5.186;2023-12-07T19:47:04;7.82;60.11
76759;DHT22;65701;45.588;5.186;2023-12-07T19:49:30;7.89;59.94
76759;DHT22;65701;45.588;5.186;2023-12-07T19:51:57;7.90;60.03
76759;DHT22;65701;45.588;5.186;2023-12-07T19:54:22;7.94;59.71
76759;DHT22;65701;45.588;5.186;2023-12-07T19:56:52;7.95;59.60
76759;DHT22;65701;45.588;5.186;2023-12-07T19:59:18;7.94;59.64
76759;DHT22;65701;45.588;5.186;2023-12-07T20:01:43;7.97;59.42
76759;DHT22;65701;45.588;5.186;2023-12-07T20:04:09;8.03;59.43
76759;DHT22;65701;45.588;5.186;2023-12-07T20:06:36;7.98;59.36
76759;DHT22;65701;45.588;5.186;2023-12-07T20:09:02;8.01;59.32
76759;DHT22;65701;45.588;5.186;2023-12-07T20:11:28;8.03;59.34
76759;DHT22;65701;45.588;5.186;2023-12-07T20:13:53;8.01;59.11
76759;DHT22;65701;45.588;5.186;2023-12-07T20:16:19;7.98;59.15
76759;DHT22;65701;45.588;5.186;2023-12-07T20:18:46;8.05;59.04
76759;DHT22;65701;45.588;5.186;2023-12-07T20:21:12;8.05;59.08
76759;DHT22;65701;45.588;5.186;2023-12-07T20:23:38;8.05;59.04
76759;DHT22;65701;45.588;5.186;2023-12-07T20:26:09;8.05;59.10
76759;DHT22;65701;45.588;5.186;2023-12-07T20:28:43;8.08;59.22
76759;DHT22;65701;45.588;5.186;2023-12-07T20:31:12;8.07;59.41
76759;DHT22;65701;45.588;5.186;2023-12-07T20:33:38;8.05;59.43
76759;DHT22;65701;45.588;5.186;2023-12-07T20:36:05;8.07;59.31
76759;DHT22;65701;45.588;5.186;2023-12-07T20:38:30;8.08;59.44
76759;DHT22;65701;45.588;5.186;2023-12-07T20:40:56;8.07;59.38
76759;DHT22;65701;45.588;5.186;2023-12-07T20:43:21;8.10;59.58
76759;DHT22;65701;45.588;5.186;2023-12-07T20:45:47;8.08;59.68
76759;DHT22;65701;45.588;5.186;2023-12-07T20:48:12;8.08;59.74
76759;DHT22;65701;45.588;5.186;2023-12-07T20:50:38;8.08;59.73
76759;DHT22;65701;45.588;5.186;2023-12-07T20:53:03;8.08;59.57
76759;DHT22;65701;45.588;5.186;2023-12-07T20:55:29;8.08;59.64
76759;DHT22;65701;45.588;5.186;2023-12-07T20:57:57;8.07;59.74
76759;DHT22;65701;45.588;5.186;2023-12-07T21:00:23;8.10;59.87
76759;DHT22;65701;45.588;5.186;2023-12-07T21:02:48;8.11;59.94
76759;DHT22;65701;45.588;5.186;2023-12-07T21:05:13;8.04;59.99
76759;DHT22;65701;45.588;5.186;2023-12-07T21:07:39;8.08;60.07
76759;DHT22;65701;45.588;5.186;2023-12-07T21:10:05;8.12;60.11
76759;DHT22;65701;45.588;5.186;2023-12-07T21:12:31;8.11;60.16
76759;DHT22;65701;45.588;5.186;2023-12-07T21:14:56;8.18;60.26
76759;DHT22;65701;45.588;5.186;2023-12-07T21:17:21;8.20;60.35